sensor_id;sensor_type;location;lat;lon;timestamp;P1;durP1;ratioP1;P2;durP2;ratioP2
56073;SDS011;41950;55.840;37.442;2023-04-06T00:01:36;7.72;;;5.68;;
56073;SDS011;41950;55.840;37.442;2023-04-06T00:04:01;7.40;;;5.38;;
56073;SDS011;41950;55.840;37.442;2023-04-06T00:06:27;9.60;;;6.18;;
56073;SDS011;41950;55.840;37.442;2023-04-06T00:08:53;6.45;;;5.30;;
56073;SDS011;41950;55.840;37.442;2023-04-06T00:11:21;8.93;;;5.70;;
56073;SDS011;41950;55.840;37.442;2023-04-06T00:13:47;7.57;;;5.72;;
56073;SDS011;41950;55.840;37.442;2023-04-06T00:16:12;8.50;;;5.85;;
56073;SDS011;41950;55.840;37.442;2023-04-06T00:18:38;6.75;;;5.45;;
56073;SDS011;41950;55.840;37.442;2023-04-06T00:21:04;9.05;;;6.22;;
56073;SDS011;41950;55.840;37.442;2023-04-06T00:23:30;9.25;;;5.88;;
56073;SDS011;41950;55.840;37.442;2023-04-06T00:25:55;9.10;;;5.60;;
56073;SDS011;41950;55.840;37.442;2023-04-06T00:28:21;7.57;;;6.00;;
56073;SDS011;41950;55.840;37.442;2023-04-06T00:30:51;8.05;;;5.75;;
56073;SDS011;41950;55.840;37.442;2023-04-06T00:33:20;8.73;;;6.47;;
56073;SDS011;41950;55.840;37.442;2023-04-06T00:35:47;9.23;;;5.63;;
56073;SDS011;41950;55.840;37.442;2023-04-06T00:38:13;8.45;;;6.35;;
56073;SDS011;41950;55.840;37.442;2023-04-06T00:40:40;7.78;;;6.10;;
56073;SDS011;41950;55.840;37.442;2023-04-06T00:43:06;8.57;;;6.20;;
56073;SDS011;41950;55.840;37.442;2023-04-06T00:45:34;7.88;;;6.38;;
56073;SDS011;41950;55.840;37.442;2023-04-06T00:48:00;7.95;;;6.10;;
56073;SDS011;41950;55.840;37.442;2023-04-06T00:50:27;7.70;;;5.85;;
56073;SDS011;41950;55.840;37.442;2023-04-06T00:52:53;8.00;;;5.88;;
56073;SDS011;41950;55.840;37.442;2023-04-06T00:55:20;8.82;;;5.88;;
56073;SDS011;41950;55.840;37.442;2023-04-06T00:57:46;10.50;;;6.93;;
56073;SDS011;41950;55.840;37.442;2023-04-06T01:00:13;8.23;;;6.50;;
56073;SDS011;41950;55.840;37.442;2023-04-06T01:02:39;11.13;;;6.45;;
56073;SDS011;41950;55.840;37.442;2023-04-06T01:05:05;8.23;;;5.90;;
56073;SDS011;41950;55.840;37.442;2023-04-06T01:07:31;7.32;;;5.88;;
56073;SDS011;41950;55.840;37.442;2023-04-06T01:09:57;8.20;;;5.90;;
56073;SDS011;41950;55.840;37.442;2023-04-06T01:12:23;11.02;;;7.00;;
56073;SDS011;41950;55.840;37.442;2023-04-06T01:14:49;10.73;;;6.30;;
56073;SDS011;41950;55.840;37.442;2023-04-06T01:17:15;7.95;;;6.20;;
56073;SDS011;41950;55.840;37.442;2023-04-06T01:19:41;8.52;;;6.40;;
56073;SDS011;41950;55.840;37.442;2023-04-06T01:22:07;9.32;;;6.60;;
56073;SDS011;41950;55.840;37.442;2023-04-06T01:24:33;7.07;;;5.90;;
56073;SDS011;41950;55.840;37.442;2023-04-06T01:26:59;8.07;;;6.05;;
56073;SDS011;41950;55.840;37.442;2023-04-06T01:29:25;11.77;;;6.10;;
56073;SDS011;41950;55.840;37.442;2023-04-06T01:31:51;8.73;;;6.45;;
56073;SDS011;41950;55.840;37.442;2023-04-06T01:34:17;8.35;;;6.63;;
56073;SDS011;41950;55.840;37.442;2023-04-06T01:36:43;8.23;;;6.20;;
56073;SDS011;41950;55.840;37.442;2023-04-06T01:39:08;7.75;;;5.88;;
56073;SDS011;41950;55.840;37.442;2023-04-06T01:41:34;8.15;;;6.03;;
56073;SDS011;41950;55.840;37.442;2023-04-06T01:44:00;8.55;;;6.28;;
56073;SDS011;41950;55.840;37.442;2023-04-06T01:46:26;7.97;;;6.38;;
56073;SDS011;41950;55.840;37.442;2023-04-06T01:48:52;8.23;;;5.55;;
56073;SDS011;41950;55.840;37.442;2023-04-06T01:51:18;9.52;;;6.57;;
56073;SDS011;41950;55.840;37.442;2023-04-06T01:53:43;10.63;;;6.40;;
56073;SDS011;41950;55.840;37.442;2023-04-06T01:56:09;7.70;;;6.07;;
56073;SDS011;41950;55.840;37.442;2023-04-06T01:58:35;7.85;;;5.80;;
56073;SDS011;41950;55.840;37.442;2023-04-06T02:01:01;7.70;;;5.90;;
56073;SDS011;41950;55.840;37.442;2023-04-06T02:03:26;9.05;;;5.78;;
56073;SDS011;41950;55.840;37.442;2023-04-06T02:05:52;8.48;;;6.22;;
56073;SDS011;41950;55.840;37.442;2023-04-06T02:08:18;8.45;;;5.95;;
56073;SDS011;41950;55.840;37.442;2023-04-06T02:10:44;7.72;;;5.70;;
56073;SDS011;41950;55.840;37.442;2023-04-06T02:13:09;8.48;;;5.97;;
56073;SDS011;41950;55.840;37.442;2023-04-06T02:15:35;7.55;;;5.60;;
56073;SDS011;41950;55.840;37.442;2023-04-06T02:18:01;8.15;;;5.40;;
56073;SDS011;41950;55.840;37.442;2023-04-06T02:20:26;7.22;;;6.45;;
56073;SDS011;41950;55.840;37.442;2023-04-06T02:22:52;7.70;;;5.75;;
56073;SDS011;41950;55.840;37.442;2023-04-06T02:25:18;10.60;;;6.40;;
56073;SDS011;41950;55.840;37.442;2023-04-06T02:27:43;8.02;;;5.50;;
56073;SDS011;41950;55.840;37.442;2023-04-06T02:30:09;8.20;;;6.00;;
56073;SDS011;41950;55.840;37.442;2023-04-06T02:32:35;7.57;;;5.78;;
56073;SDS011;41950;55.840;37.442;2023-04-06T02:35:01;7.03;;;5.68;;
56073;SDS011;41950;55.840;37.442;2023-04-06T02:37:28;7.97;;;5.70;;
56073;SDS011;41950;55.840;37.442;2023-04-06T02:39:54;6.97;;;5.55;;
56073;SDS011;41950;55.840;37.442;2023-04-06T02:42:20;7.70;;;5.97;;
56073;SDS011;41950;55.840;37.442;2023-04-06T02:44:46;8.32;;;5.38;;
56073;SDS011;41950;55.840;37.442;2023-04-06T02:47:11;7.88;;;6.60;;
56073;SDS011;41950;55.840;37.442;2023-04-06T02:49:37;7.53;;;5.43;;
56073;SDS011;41950;55.840;37.442;2023-04-06T02:52:03;9.48;;;6.22;;
56073;SDS011;41950;55.840;37.442;2023-04-06T02:54:28;8.52;;;5.70;;
56073;SDS011;41950;55.840;37.442;2023-04-06T02:56:54;9.05;;;5.80;;
56073;SDS011;41950;55.840;37.442;2023-04-06T02:59:20;7.30;;;5.85;;
56073;SDS011;41950;55.840;37.442;2023-04-06T03:01:46;7.18;;;5.75;;
56073;SDS011;41950;55.840;37.442;2023-04-06T03:04:11;6.90;;;5.50;;
56073;SDS011;41950;55.840;37.442;2023-04-06T03:06:37;7.03;;;5.60;;
56073;SDS011;41950;55.840;37.442;2023-04-06T03:09:03;7.03;;;5.25;;
56073;SDS011;41950;55.840;37.442;2023-04-06T03:11:29;7.18;;;5.07;;
56073;SDS011;41950;55.840;37.442;2023-04-06T03:13:54;8.05;;;5.55;;
56073;SDS011;41950;55.840;37.442;2023-04-06T03:16:20;9.45;;;5.47;;
56073;SDS011;41950;55.840;37.442;2023-04-06T03:18:46;7.18;;;5.00;;
56073;SDS011;41950;55.840;37.442;2023-04-06T03:21:12;7.65;;;5.30;;
56073;SDS011;41950;55.840;37.442;2023-04-06T03:23:40;6.25;;;5.05;;
56073;SDS011;41950;55.840;37.442;2023-04-06T03:26:06;7.45;;;5.57;;
56073;SDS011;41950;55.840;37.442;2023-04-06T03:28:32;7.07;;;5.03;;
56073;SDS011;41950;55.840;37.442;2023-04-06T03:30:58;8.57;;;5.70;;
56073;SDS011;41950;55.840;37.442;2023-04-06T03:33:24;7.47;;;5.22;;
56073;SDS011;41950;55.840;37.442;2023-04-06T03:35:52;8.60;;;5.47;;
56073;SDS011;41950;55.840;37.442;2023-04-06T03:38:18;7.00;;;4.97;;
56073;SDS011;41950;55.840;37.442;2023-04-06T03:40:44;6.97;;;5.38;;
56073;SDS011;41950;55.840;37.442;2023-04-06T03:43:10;7.55;;;5.35;;
56073;SDS011;41950;55.840;37.442;2023-04-06T03:45:36;7.13;;;5.13;;
56073;SDS011;41950;55.840;37.442;2023-04-06T03:48:02;6.65;;;4.80;;
56073;SDS011;41950;55.840;37.442;2023-04-06T03:50:27;6.60;;;5.28;;
56073;SDS011;41950;55.840;37.442;2023-04-06T03:52:53;7.40;;;5.53;;
56073;SDS011;41950;55.840;37.442;2023-04-06T03:55:19;7.57;;;5.47;;
56073;SDS011;41950;55.840;37.442;2023-04-06T03:57:45;7.45;;;5.50;;
56073;SDS011;41950;55.840;37.442;2023-04-06T04:00:10;9.77;;;5.20;;
56073;SDS011;41950;55.840;37.442;2023-04-06T04:02:37;8.07;;;5.15;;
56073;SDS011;41950;55.840;37.442;2023-04-06T04:05:03;6.70;;;5.72;;
56073;SDS011;41950;55.840;37.442;2023-04-06T04:07:31;7.80;;;5.30;;
56073;SDS011;41950;55.840;37.442;2023-04-06T04:09:57;7.53;;;5.25;;
56073;SDS011;41950;55.840;37.442;2023-04-06T04:12:22;7.40;;;5.60;;
56073;SDS011;41950;55.840;37.442;2023-04-06T04:14:51;7.28;;;5.35;;
56073;SDS011;41950;55.840;37.442;2023-04-06T04:17:17;6.68;;;4.63;;
56073;SDS011;41950;55.840;37.442;2023-04-06T04:19:42;7.13;;;4.68;;
56073;SDS011;41950;55.840;37.442;2023-04-06T04:22:08;7.80;;;5.03;;
56073;SDS011;41950;55.840;37.442;2023-04-06T04:24:39;6.97;;;4.88;;
56073;SDS011;41950;55.840;37.442;2023-04-06T04:27:05;6.07;;;4.60;;
56073;SDS011;41950;55.840;37.442;2023-04-06T04:29:34;7.82;;;5.10;;
56073;SDS011;41950;55.840;37.442;2023-04-06T04:32:00;9.43;;;5.10;;
56073;SDS011;41950;55.840;37.442;2023-04-06T04:34:25;8.07;;;4.68;;
56073;SDS011;41950;55.840;37.442;2023-04-06T04:36:52;7.65;;;5.32;;
56073;SDS011;41950;55.840;37.442;2023-04-06T04:39:17;7.47;;;4.93;;
56073;SDS011;41950;55.840;37.442;2023-04-06T04:41:43;7.78;;;4.63;;
56073;SDS011;41950;55.840;37.442;2023-04-06T04:44:09;8.80;;;5.10;;
56073;SDS011;41950;55.840;37.442;2023-04-06T04:46:35;6.53;;;4.88;;
56073;SDS011;41950;55.840;37.442;2023-04-06T04:49:00;7.00;;;4.75;;
56073;SDS011;41950;55.840;37.442;2023-04-06T04:51:26;9.98;;;5.40;;
56073;SDS011;41950;55.840;37.442;2023-04-06T04:53:52;8.30;;;4.60;;
56073;SDS011;41950;55.840;37.442;2023-04-06T04:56:17;7.90;;;5.28;;
56073;SDS011;41950;55.840;37.442;2023-04-06T04:58:43;7.60;;;5.25;;
56073;SDS011;41950;55.840;37.442;2023-04-06T05:01:09;6.53;;;4.45;;
56073;SDS011;41950;55.840;37.442;2023-04-06T05:03:36;8.10;;;5.05;;
56073;SDS011;41950;55.840;37.442;2023-04-06T05:06:04;10.75;;;5.35;;
56073;SDS011;41950;55.840;37.442;2023-04-06T05:08:30;8.77;;;5.20;;
56073;SDS011;41950;55.840;37.442;2023-04-06T05:10:56;6.30;;;4.47;;
56073;SDS011;41950;55.840;37.442;2023-04-06T05:13:25;5.97;;;4.50;;
56073;SDS011;41950;55.840;37.442;2023-04-06T05:15:53;7.40;;;4.60;;
56073;SDS011;41950;55.840;37.442;2023-04-06T05:18:19;8.40;;;5.10;;
56073;SDS011;41950;55.840;37.442;2023-04-06T05:20:46;9.00;;;5.30;;
56073;SDS011;41950;55.840;37.442;2023-04-06T05:23:12;6.90;;;4.78;;
56073;SDS011;41950;55.840;37.442;2023-04-06T05:25:38;11.43;;;5.05;;
56073;SDS011;41950;55.840;37.442;2023-04-06T05:28:03;10.95;;;5.28;;
56073;SDS011;41950;55.840;37.442;2023-04-06T05:30:29;8.10;;;4.82;;
56073;SDS011;41950;55.840;37.442;2023-04-06T05:32:55;7.80;;;4.60;;
56073;SDS011;41950;55.840;37.442;2023-04-06T05:35:21;12.02;;;4.60;;
56073;SDS011;41950;55.840;37.442;2023-04-06T05:37:46;8.05;;;4.80;;
56073;SDS011;41950;55.840;37.442;2023-04-06T05:40:12;7.25;;;4.43;;
56073;SDS011;41950;55.840;37.442;2023-04-06T05:42:38;6.45;;;3.97;;
56073;SDS011;41950;55.840;37.442;2023-04-06T05:45:06;9.20;;;4.70;;
56073;SDS011;41950;55.840;37.442;2023-04-06T05:47:32;8.63;;;4.30;;
56073;SDS011;41950;55.840;37.442;2023-04-06T05:49:58;7.30;;;4.18;;
56073;SDS011;41950;55.840;37.442;2023-04-06T05:52:23;6.88;;;4.28;;
56073;SDS011;41950;55.840;37.442;2023-04-06T05:54:49;8.50;;;4.40;;
56073;SDS011;41950;55.840;37.442;2023-04-06T05:57:15;7.05;;;4.53;;
56073;SDS011;41950;55.840;37.442;2023-04-06T05:59:44;6.50;;;4.40;;
56073;SDS011;41950;55.840;37.442;2023-04-06T06:02:10;8.00;;;4.55;;
56073;SDS011;41950;55.840;37.442;2023-04-06T06:04:36;8.93;;;4.03;;
56073;SDS011;41950;55.840;37.442;2023-04-06T06:07:01;7.82;;;3.92;;
56073;SDS011;41950;55.840;37.442;2023-04-06T06:09:27;9.55;;;4.47;;
56073;SDS011;41950;55.840;37.442;2023-04-06T06:11:53;6.43;;;3.97;;
56073;SDS011;41950;55.840;37.442;2023-04-06T06:14:18;9.10;;;4.40;;
56073;SDS011;41950;55.840;37.442;2023-04-06T06:16:45;5.45;;;3.60;;
56073;SDS011;41950;55.840;37.442;2023-04-06T06:19:11;8.45;;;4.20;;
56073;SDS011;41950;55.840;37.442;2023-04-06T06:21:36;7.68;;;4.03;;
56073;SDS011;41950;55.840;37.442;2023-04-06T06:24:02;12.90;;;4.57;;
56073;SDS011;41950;55.840;37.442;2023-04-06T06:26:28;10.02;;;4.05;;
56073;SDS011;41950;55.840;37.442;2023-04-06T06:28:54;7.68;;;4.45;;
56073;SDS011;41950;55.840;37.442;2023-04-06T06:31:20;7.00;;;4.15;;
56073;SDS011;41950;55.840;37.442;2023-04-06T06:33:48;8.50;;;4.60;;
56073;SDS011;41950;55.840;37.442;2023-04-06T06:36:16;7.78;;;4.25;;
56073;SDS011;41950;55.840;37.442;2023-04-06T06:38:42;8.32;;;4.35;;
56073;SDS011;41950;55.840;37.442;2023-04-06T06:41:08;6.22;;;4.20;;
56073;SDS011;41950;55.840;37.442;2023-04-06T06:43:34;7.45;;;4.40;;
56073;SDS011;41950;55.840;37.442;2023-04-06T06:46:00;7.28;;;4.05;;
56073;SDS011;41950;55.840;37.442;2023-04-06T06:48:25;6.57;;;4.00;;
56073;SDS011;41950;55.840;37.442;2023-04-06T06:50:51;7.93;;;4.43;;
56073;SDS011;41950;55.840;37.442;2023-04-06T06:53:17;9.00;;;4.20;;
56073;SDS011;41950;55.840;37.442;2023-04-06T06:55:42;7.18;;;3.88;;
56073;SDS011;41950;55.840;37.442;2023-04-06T06:58:09;8.02;;;3.97;;
56073;SDS011;41950;55.840;37.442;2023-04-06T07:00:35;8.20;;;3.95;;
56073;SDS011;41950;55.840;37.442;2023-04-06T07:03:01;7.40;;;3.88;;
56073;SDS011;41950;55.840;37.442;2023-04-06T07:05:26;5.78;;;3.80;;
56073;SDS011;41950;55.840;37.442;2023-04-06T07:07:52;8.88;;;3.42;;
56073;SDS011;41950;55.840;37.442;2023-04-06T07:10:18;7.15;;;3.75;;
56073;SDS011;41950;55.840;37.442;2023-04-06T07:12:44;6.38;;;4.00;;
56073;SDS011;41950;55.840;37.442;2023-04-06T07:15:11;6.85;;;3.15;;
56073;SDS011;41950;55.840;37.442;2023-04-06T07:17:36;6.90;;;3.50;;
56073;SDS011;41950;55.840;37.442;2023-04-06T07:20:02;8.27;;;3.30;;
56073;SDS011;41950;55.840;37.442;2023-04-06T07:22:28;9.73;;;3.35;;
56073;SDS011;41950;55.840;37.442;2023-04-06T07:24:54;7.65;;;3.63;;
56073;SDS011;41950;55.840;37.442;2023-04-06T07:27:20;6.82;;;3.40;;
56073;SDS011;41950;55.840;37.442;2023-04-06T07:29:46;7.28;;;3.45;;
56073;SDS011;41950;55.840;37.442;2023-04-06T07:32:11;9.07;;;3.90;;
56073;SDS011;41950;55.840;37.442;2023-04-06T07:34:37;7.90;;;3.45;;
56073;SDS011;41950;55.840;37.442;2023-04-06T07:37:03;5.63;;;2.78;;
56073;SDS011;41950;55.840;37.442;2023-04-06T07:39:28;6.88;;;3.00;;
56073;SDS011;41950;55.840;37.442;2023-04-06T07:41:54;6.88;;;3.08;;
56073;SDS011;41950;55.840;37.442;2023-04-06T07:44:20;7.30;;;3.25;;
56073;SDS011;41950;55.840;37.442;2023-04-06T07:46:46;5.45;;;3.17;;
56073;SDS011;41950;55.840;37.442;2023-04-06T07:49:11;5.70;;;3.03;;
56073;SDS011;41950;55.840;37.442;2023-04-06T07:51:37;7.32;;;3.45;;
56073;SDS011;41950;55.840;37.442;2023-04-06T07:54:04;5.78;;;3.40;;
56073;SDS011;41950;55.840;37.442;2023-04-06T07:56:30;8.32;;;3.10;;
56073;SDS011;41950;55.840;37.442;2023-04-06T07:58:56;7.72;;;2.80;;
56073;SDS011;41950;55.840;37.442;2023-04-06T08:01:23;9.55;;;3.20;;
56073;SDS011;41950;55.840;37.442;2023-04-06T08:03:49;5.70;;;3.17;;
56073;SDS011;41950;55.840;37.442;2023-04-06T08:06:15;4.40;;;2.75;;
56073;SDS011;41950;55.840;37.442;2023-04-06T08:08:42;8.52;;;3.33;;
56073;SDS011;41950;55.840;37.442;2023-04-06T08:11:08;5.45;;;2.45;;
56073;SDS011;41950;55.840;37.442;2023-04-06T08:13:34;5.95;;;2.80;;
56073;SDS011;41950;55.840;37.442;2023-04-06T08:16:00;5.70;;;2.90;;
56073;SDS011;41950;55.840;37.442;2023-04-06T08:18:27;6.45;;;2.67;;
56073;SDS011;41950;55.840;37.442;2023-04-06T08:20:54;7.32;;;2.80;;
56073;SDS011;41950;55.840;37.442;2023-04-06T08:23:20;6.25;;;2.75;;
56073;SDS011;41950;55.840;37.442;2023-04-06T08:25:46;8.82;;;3.15;;
56073;SDS011;41950;55.840;37.442;2023-04-06T08:28:11;5.03;;;2.50;;
56073;SDS011;41950;55.840;37.442;2023-04-06T08:30:39;6.45;;;2.80;;
56073;SDS011;41950;55.840;37.442;2023-04-06T08:33:06;6.35;;;2.38;;
56073;SDS011;41950;55.840;37.442;2023-04-06T08:35:32;6.97;;;2.53;;
56073;SDS011;41950;55.840;37.442;2023-04-06T08:37:57;7.68;;;2.80;;
56073;SDS011;41950;55.840;37.442;2023-04-06T08:40:23;9.10;;;3.28;;
56073;SDS011;41950;55.840;37.442;2023-04-06T08:42:50;4.97;;;2.30;;
56073;SDS011;41950;55.840;37.442;2023-04-06T08:45:19;8.48;;;2.63;;
56073;SDS011;41950;55.840;37.442;2023-04-06T08:47:52;6.75;;;2.60;;
56073;SDS011;41950;55.840;37.442;2023-04-06T08:50:19;4.35;;;2.40;;
56073;SDS011;41950;55.840;37.442;2023-04-06T08:52:47;6.20;;;2.80;;
56073;SDS011;41950;55.840;37.442;2023-04-06T08:55:14;5.75;;;2.53;;
56073;SDS011;41950;55.840;37.442;2023-04-06T08:57:41;5.20;;;2.88;;
56073;SDS011;41950;55.840;37.442;2023-04-06T09:00:09;6.47;;;2.78;;
56073;SDS011;41950;55.840;37.442;2023-04-06T09:02:39;5.55;;;2.63;;
56073;SDS011;41950;55.840;37.442;2023-04-06T09:05:07;5.30;;;2.42;;
56073;SDS011;41950;55.840;37.442;2023-04-06T09:07:35;7.18;;;2.72;;
56073;SDS011;41950;55.840;37.442;2023-04-06T09:10:02;6.03;;;2.58;;
56073;SDS011;41950;55.840;37.442;2023-04-06T09:12:30;8.10;;;2.35;;
56073;SDS011;41950;55.840;37.442;2023-04-06T09:14:57;8.13;;;2.55;;
56073;SDS011;41950;55.840;37.442;2023-04-06T09:17:28;4.45;;;2.00;;
56073;SDS011;41950;55.840;37.442;2023-04-06T09:19:55;7.55;;;2.45;;
56073;SDS011;41950;55.840;37.442;2023-04-06T09:22:21;4.63;;;1.85;;
56073;SDS011;41950;55.840;37.442;2023-04-06T09:27:14;7.75;;;2.42;;
56073;SDS011;41950;55.840;37.442;2023-04-06T09:29:40;10.75;;;2.83;;
56073;SDS011;41950;55.840;37.442;2023-04-06T09:32:07;7.22;;;2.97;;
56073;SDS011;41950;55.840;37.442;2023-04-06T09:34:42;6.53;;;2.35;;
56073;SDS011;41950;55.840;37.442;2023-04-06T09:37:14;5.70;;;2.20;;
56073;SDS011;41950;55.840;37.442;2023-04-06T09:39:44;7.57;;;2.05;;
56073;SDS011;41950;55.840;37.442;2023-04-06T09:42:31;8.85;;;1.95;;
56073;SDS011;41950;55.840;37.442;2023-04-06T09:44:56;9.20;;;2.28;;
56073;SDS011;41950;55.840;37.442;2023-04-06T09:47:22;5.03;;;2.08;;
56073;SDS011;41950;55.840;37.442;2023-04-06T09:49:49;10.88;;;2.38;;
56073;SDS011;41950;55.840;37.442;2023-04-06T09:52:15;7.32;;;2.15;;
56073;SDS011;41950;55.840;37.442;2023-04-06T09:54:43;9.98;;;2.55;;
56073;SDS011;41950;55.840;37.442;2023-04-06T09:57:11;8.77;;;2.10;;
56073;SDS011;41950;55.840;37.442;2023-04-06T10:05:33;3.65;;;1.95;;
56073;SDS011;41950;55.840;37.442;2023-04-06T10:10:36;6.72;;;2.17;;
56073;SDS011;41950;55.840;37.442;2023-04-06T10:13:03;10.60;;;2.00;;
56073;SDS011;41950;55.840;37.442;2023-04-06T10:15:29;6.25;;;1.85;;
56073;SDS011;41950;55.840;37.442;2023-04-06T10:17:59;6.63;;;2.20;;
56073;SDS011;41950;55.840;37.442;2023-04-06T10:20:31;7.18;;;2.63;;
56073;SDS011;41950;55.840;37.442;2023-04-06T10:23:32;6.82;;;1.88;;
56073;SDS011;41950;55.840;37.442;2023-04-06T10:25:59;6.55;;;2.00;;
56073;SDS011;41950;55.840;37.442;2023-04-06T10:28:30;4.93;;;2.30;;
56073;SDS011;41950;55.840;37.442;2023-04-06T10:31:01;8.20;;;1.90;;
56073;SDS011;41950;55.840;37.442;2023-04-06T10:33:33;6.25;;;1.98;;
56073;SDS011;41950;55.840;37.442;2023-04-06T10:36:44;7.45;;;2.13;;
56073;SDS011;41950;55.840;37.442;2023-04-06T10:38:54;5.17;;;2.40;;
56073;SDS011;41950;55.840;37.442;2023-04-06T10:41:22;6.38;;;2.20;;
56073;SDS011;41950;55.840;37.442;2023-04-06T10:43:54;7.40;;;2.00;;
56073;SDS011;41950;55.840;37.442;2023-04-06T10:46:24;7.68;;;2.25;;
56073;SDS011;41950;55.840;37.442;2023-04-06T10:48:51;7.78;;;2.03;;
56073;SDS011;41950;55.840;37.442;2023-04-06T10:51:17;6.18;;;1.98;;
56073;SDS011;41950;55.840;37.442;2023-04-06T10:53:46;8.60;;;2.47;;
56073;SDS011;41950;55.840;37.442;2023-04-06T10:56:14;6.38;;;2.08;;
56073;SDS011;41950;55.840;37.442;2023-04-06T10:58:48;8.77;;;2.20;;
56073;SDS011;41950;55.840;37.442;2023-04-06T11:01:17;7.03;;;2.20;;
56073;SDS011;41950;55.840;37.442;2023-04-06T11:03:45;5.05;;;1.83;;
56073;SDS011;41950;55.840;37.442;2023-04-06T11:06:18;5.53;;;2.20;;
56073;SDS011;41950;55.840;37.442;2023-04-06T11:08:45;8.85;;;2.47;;
56073;SDS011;41950;55.840;37.442;2023-04-06T11:11:16;5.30;;;2.05;;
56073;SDS011;41950;55.840;37.442;2023-04-06T11:13:49;6.57;;;2.83;;
56073;SDS011;41950;55.840;37.442;2023-04-06T11:16:20;7.38;;;2.45;;
56073;SDS011;41950;55.840;37.442;2023-04-06T11:21:18;5.40;;;2.10;;
56073;SDS011;41950;55.840;37.442;2023-04-06T11:23:45;8.07;;;2.17;;
56073;SDS011;41950;55.840;37.442;2023-04-06T11:26:11;3.85;;;2.30;;
56073;SDS011;41950;55.840;37.442;2023-04-06T11:28:41;7.13;;;2.28;;
56073;SDS011;41950;55.840;37.442;2023-04-06T11:31:11;5.28;;;2.22;;
56073;SDS011;41950;55.840;37.442;2023-04-06T11:33:37;7.72;;;2.60;;
56073;SDS011;41950;55.840;37.442;2023-04-06T11:36:05;5.97;;;2.15;;
56073;SDS011;41950;55.840;37.442;2023-04-06T11:38:31;7.93;;;2.45;;
56073;SDS011;41950;55.840;37.442;2023-04-06T11:40:57;3.88;;;1.92;;
56073;SDS011;41950;55.840;37.442;2023-04-06T11:43:27;7.07;;;2.30;;
56073;SDS011;41950;55.840;37.442;2023-04-06T11:45:59;6.95;;;2.13;;
56073;SDS011;41950;55.840;37.442;2023-04-06T11:48:27;9.15;;;2.20;;
56073;SDS011;41950;55.840;37.442;2023-04-06T11:50:57;7.38;;;2.13;;
56073;SDS011;41950;55.840;37.442;2023-04-06T11:53:26;3.30;;;1.58;;
56073;SDS011;41950;55.840;37.442;2023-04-06T11:55:55;10.95;;;2.47;;
56073;SDS011;41950;55.840;37.442;2023-04-06T11:58:21;5.47;;;1.90;;
56073;SDS011;41950;55.840;37.442;2023-04-06T12:00:47;3.70;;;1.70;;
56073;SDS011;41950;55.840;37.442;2023-04-06T12:03:13;5.40;;;1.90;;
56073;SDS011;41950;55.840;37.442;2023-04-06T12:05:39;7.50;;;2.20;;
56073;SDS011;41950;55.840;37.442;2023-04-06T12:08:05;5.18;;;2.20;;
56073;SDS011;41950;55.840;37.442;2023-04-06T12:10:31;7.35;;;2.38;;
56073;SDS011;41950;55.840;37.442;2023-04-06T12:12:57;5.75;;;2.10;;
56073;SDS011;41950;55.840;37.442;2023-04-06T12:15:23;5.82;;;2.08;;
56073;SDS011;41950;55.840;37.442;2023-04-06T12:17:48;4.22;;;1.90;;
56073;SDS011;41950;55.840;37.442;2023-04-06T12:20:16;6.25;;;2.10;;
56073;SDS011;41950;55.840;37.442;2023-04-06T12:22:43;7.82;;;1.92;;
56073;SDS011;41950;55.840;37.442;2023-04-06T12:25:08;4.32;;;2.30;;
56073;SDS011;41950;55.840;37.442;2023-04-06T12:27:34;6.28;;;1.98;;
56073;SDS011;41950;55.840;37.442;2023-04-06T12:30:00;6.72;;;2.38;;
56073;SDS011;41950;55.840;37.442;2023-04-06T12:32:28;5.35;;;2.28;;
56073;SDS011;41950;55.840;37.442;2023-04-06T12:34:54;5.78;;;2.00;;
56073;SDS011;41950;55.840;37.442;2023-04-06T12:37:20;5.35;;;1.88;;
56073;SDS011;41950;55.840;37.442;2023-04-06T12:39:45;7.45;;;2.00;;
56073;SDS011;41950;55.840;37.442;2023-04-06T12:42:11;7.57;;;2.00;;
56073;SDS011;41950;55.840;37.442;2023-04-06T12:44:40;5.50;;;1.80;;
56073;SDS011;41950;55.840;37.442;2023-04-06T12:47:07;6.22;;;2.05;;
56073;SDS011;41950;55.840;37.442;2023-04-06T12:49:33;5.95;;;1.95;;
56073;SDS011;41950;55.840;37.442;2023-04-06T12:51:59;7.03;;;1.83;;
56073;SDS011;41950;55.840;37.442;2023-04-06T12:54:25;5.50;;;2.10;;
56073;SDS011;41950;55.840;37.442;2023-04-06T12:56:52;4.43;;;2.35;;
56073;SDS011;41950;55.840;37.442;2023-04-06T12:59:18;5.88;;;2.20;;
56073;SDS011;41950;55.840;37.442;2023-04-06T13:01:43;5.47;;;2.35;;
56073;SDS011;41950;55.840;37.442;2023-04-06T13:04:09;5.88;;;1.88;;
56073;SDS011;41950;55.840;37.442;2023-04-06T13:06:35;4.03;;;2.20;;
56073;SDS011;41950;55.840;37.442;2023-04-06T13:09:01;5.00;;;1.70;;
56073;SDS011;41950;55.840;37.442;2023-04-06T13:11:27;5.13;;;2.00;;
56073;SDS011;41950;55.840;37.442;2023-04-06T13:13:53;6.90;;;1.80;;
56073;SDS011;41950;55.840;37.442;2023-04-06T13:16:19;4.75;;;1.77;;
56073;SDS011;41950;55.840;37.442;2023-04-06T13:18:45;4.28;;;1.35;;
56073;SDS011;41950;55.840;37.442;2023-04-06T13:21:13;5.63;;;1.60;;
56073;SDS011;41950;55.840;37.442;2023-04-06T13:23:40;3.67;;;1.60;;
56073;SDS011;41950;55.840;37.442;2023-04-06T13:26:06;7.00;;;1.83;;
56073;SDS011;41950;55.840;37.442;2023-04-06T13:28:33;2.85;;;1.58;;
56073;SDS011;41950;55.840;37.442;2023-04-06T13:31:01;4.28;;;1.65;;
56073;SDS011;41950;55.840;37.442;2023-04-06T13:33:28;5.40;;;1.75;;
56073;SDS011;41950;55.840;37.442;2023-04-06T13:35:54;3.60;;;1.48;;
56073;SDS011;41950;55.840;37.442;2023-04-06T13:38:20;6.07;;;1.30;;
56073;SDS011;41950;55.840;37.442;2023-04-06T13:40:46;6.53;;;2.25;;
56073;SDS011;41950;55.840;37.442;2023-04-06T13:43:12;3.50;;;1.15;;
56073;SDS011;41950;55.840;37.442;2023-04-06T13:45:38;7.32;;;1.52;;
56073;SDS011;41950;55.840;37.442;2023-04-06T13:48:04;3.75;;;1.40;;
56073;SDS011;41950;55.840;37.442;2023-04-06T13:50:30;3.65;;;1.20;;
56073;SDS011;41950;55.840;37.442;2023-04-06T13:52:56;3.55;;;1.40;;
56073;SDS011;41950;55.840;37.442;2023-04-06T13:55:22;3.65;;;1.20;;
56073;SDS011;41950;55.840;37.442;2023-04-06T13:57:51;4.30;;;1.40;;
56073;SDS011;41950;55.840;37.442;2023-04-06T14:00:17;2.75;;;1.25;;
56073;SDS011;41950;55.840;37.442;2023-04-06T14:02:43;3.10;;;1.15;;
56073;SDS011;41950;55.840;37.442;2023-04-06T14:05:09;2.92;;;1.33;;
56073;SDS011;41950;55.840;37.442;2023-04-06T14:07:35;3.95;;;1.10;;
56073;SDS011;41950;55.840;37.442;2023-04-06T14:10:02;5.35;;;1.50;;
56073;SDS011;41950;55.840;37.442;2023-04-06T14:12:28;3.42;;;1.20;;
56073;SDS011;41950;55.840;37.442;2023-04-06T14:14:54;4.60;;;1.20;;
56073;SDS011;41950;55.840;37.442;2023-04-06T14:17:20;4.00;;;1.45;;
56073;SDS011;41950;55.840;37.442;2023-04-06T14:19:45;4.57;;;1.40;;
56073;SDS011;41950;55.840;37.442;2023-04-06T14:22:12;3.20;;;1.30;;
56073;SDS011;41950;55.840;37.442;2023-04-06T14:24:38;4.70;;;1.25;;
56073;SDS011;41950;55.840;37.442;2023-04-06T14:27:04;4.40;;;1.30;;
56073;SDS011;41950;55.840;37.442;2023-04-06T14:29:29;3.17;;;1.23;;
56073;SDS011;41950;55.840;37.442;2023-04-06T14:31:55;5.22;;;1.42;;
56073;SDS011;41950;55.840;37.442;2023-04-06T14:34:28;4.15;;;1.10;;
56073;SDS011;41950;55.840;37.442;2023-04-06T14:36:54;3.42;;;0.90;;
56073;SDS011;41950;55.840;37.442;2023-04-06T14:39:20;4.45;;;1.00;;
56073;SDS011;41950;55.840;37.442;2023-04-06T14:41:46;4.55;;;1.10;;
56073;SDS011;41950;55.840;37.442;2023-04-06T14:44:13;3.17;;;0.95;;